Airfield :
LOGIN :

Register | Disclaimer

   EN    FR    IT 

 










Legend :    VFR   Marginal VFR   IFR   Intensive IFR   Very Intensive IFR
Visi :
Ceiling :
>= 8 km
>= 3000ft
5 to 8 km
1000 to 3000 ft
1500m to 5 km
500 to 1000 ft
800 to 1500m
200 to 500 ft
< 800m
< 200 ft
Symbols :   Thunderstorms  Fog  Heavy snow  Heavy precipitations  Wind > 20 kt
SIGMETs :     Misc.  Thunderstorms  Icing  Turbulence  Mountain Waves  Volcanic Ashes







- Airport Elevation : 479 ft
- IATA code : DOL
- Download approach charts


LFRG - Deauville

CURRENT METAR :
  • 152030Z AUTO VRB03KT CAVOK 15/14 Q1013

EXPIRED METARs :
  • 152000Z AUTO 11004KT 060V140 CAVOK 15/14 Q1013 BECMG 3000 BR
  • 151930Z AUTO 07004KT 010V110 CAVOK 15/14 Q1013 BECMG 3000 BR
  • 151900Z AUTO VRB02KT CAVOK 14/13 Q1013 BECMG 3000 BR
  • 151830Z AUTO 03003KT CAVOK 14/13 Q1012 BECMG 3000 BR
  • 151800Z AUTO 02004KT CAVOK 15/13 Q1012 NOSIG

TAF TAF LFRG
Valid from the 15 at 15:00 until the 16 at 00:00 UTC


151400Z 1515/1524 VRB05KT 9999 FEW030
BECMG 1520/1522 3000 BR
PROB40
TEMPO 1522/1524 1500 BR BKN003
ATIS : +33 2 31 65 65 36
No reported NOTAMs for that airfield.



MET'MAP, your aeronautical weather chart ! - Copyright ORBIFLY December 2007 - Disclaimer

ORBIFLY MET'MAP TEAM :

Programming & Development : Alexandra Zaïnal
Concept & Development : Baudouin d'Aumeries
Co-Development & Prog : Marc-Olivier Méhu
Technical & hardware support : Manuel Goepfert

Contact : metmap@orbifly.com




SOURCES & CREDITS :

   NOAA